Time;durP1;ratioP1;P1;durP2;ratioP2;P2;SDS_P1;SDS_P2;PMS_P1;PMS_P2;Temp;Humidity;BMP_temperature;BMP_pressure;BME280_temperature;BME280_humidity;BME280_pressure;Samples;Min_cycle;Max_cycle;Signal;HPM_P1;HPM_P2
2023/07/19 00:00:33;;;;;;;9.43;4.57;;;14.90;99.90;;;;;;4981558;28;20042;-78
2023/07/19 00:02:59;;;;;;;8.82;5.00;;;14.90;99.90;;;;;;4981917;28;20054;-78
2023/07/19 00:05:25;;;;;;;8.73;4.80;;;14.90;99.90;;;;;;4981596;28;20767;-80
2023/07/19 00:07:50;;;;;;;10.75;5.47;;;15.00;99.90;;;;;;4981482;28;20544;-81
2023/07/19 00:10:16;;;;;;;7.45;4.53;;;15.00;99.90;;;;;;4981629;28;20050;-78
2023/07/19 00:12:42;;;;;;;7.70;4.72;;;15.00;99.90;;;;;;4955800;28;20051;-77
2023/07/19 00:15:08;;;;;;;9.73;5.47;;;15.10;99.90;;;;;;4982193;28;20054;-78
2023/07/19 00:17:33;;;;;;;6.25;5.00;;;15.00;99.90;;;;;;4964549;28;20058;-78
2023/07/19 00:19:59;;;;;;;10.77;5.65;;;15.10;99.90;;;;;;4981518;28;20046;-77
2023/07/19 00:22:25;;;;;;;8.63;4.72;;;15.10;99.90;;;;;;4982536;28;20090;-78
2023/07/19 00:24:51;;;;;;;8.13;5.25;;;15.10;99.90;;;;;;4981693;28;20177;-81
2023/07/19 00:27:17;;;;;;;10.00;5.00;;;15.10;99.90;;;;;;4958739;28;20523;-80
2023/07/19 00:29:42;;;;;;;10.82;4.97;;;15.10;99.90;;;;;;4980706;28;20522;-77
2023/07/19 00:32:08;;;;;;;8.05;4.93;;;15.60;99.90;;;;;;4965192;28;20058;-78
2023/07/19 00:34:34;;;;;;;7.57;4.82;;;15.10;99.90;;;;;;4980270;28;20097;-77
2023/07/19 00:37:00;;;;;;;12.40;4.68;;;15.10;99.90;;;;;;4980705;28;20065;-77
2023/07/19 00:39:26;;;;;;;8.25;4.50;;;15.10;99.90;;;;;;4977042;28;20156;-76
2023/07/19 00:41:51;;;;;;;7.78;4.97;;;15.10;99.90;;;;;;4980977;28;20905;-77
2023/07/19 00:44:17;;;;;;;7.35;4.78;;;13.70;99.90;;;;;;4980537;28;20129;-77
2023/07/19 00:46:43;;;;;;;9.88;4.68;;;15.10;99.90;;;;;;4981089;28;20047;-76
2023/07/19 00:49:10;;;;;;;9.88;4.93;;;15.10;99.90;;;;;;4980862;28;20635;-78
2023/07/19 00:51:36;;;;;;;7.57;4.55;;;15.10;99.90;;;;;;4963972;28;20054;-76
2023/07/19 00:54:04;;;;;;;7.78;4.60;;;15.10;99.90;;;;;;4965575;28;20064;-77
2023/07/19 00:56:30;;;;;;;7.95;4.57;;;15.10;99.90;;;;;;4964596;28;20072;-77
2023/07/19 00:58:57;;;;;;;8.23;4.28;;;15.10;99.90;;;;;;4979727;28;20144;-76
2023/07/19 01:01:24;;;;;;;7.47;4.55;;;15.10;99.90;;;;;;4980416;28;20058;-76
2023/07/19 01:03:49;;;;;;;9.82;4.82;;;15.10;99.90;;;;;;4980578;28;20054;-77
2023/07/19 01:06:17;;;;;;;7.63;4.50;;;15.10;99.90;;;;;;4964007;28;20054;-76
2023/07/19 01:08:42;;;;;;;9.82;4.90;;;15.10;99.90;;;;;;4963880;28;20065;-78
2023/07/19 01:11:08;;;;;;;5.47;4.22;;;15.00;99.90;;;;;;4979885;28;20447;-77
2023/07/19 01:13:34;;;;;;;6.05;4.13;;;15.00;99.90;;;;;;4980027;28;20062;-77
2023/07/19 01:16:00;;;;;;;7.18;5.00;;;15.00;99.90;;;;;;4964325;28;20137;-77
2023/07/19 01:18:25;;;;;;;9.85;4.88;;;15.00;99.90;;;;;;4980216;28;20046;-77
2023/07/19 01:20:52;;;;;;;7.03;5.30;;;15.00;99.90;;;;;;4980078;28;20071;-76
2023/07/19 01:23:18;;;;;;;9.80;4.70;;;15.00;99.90;;;;;;4978499;28;20054;-77
2023/07/19 01:25:43;;;;;;;5.93;4.18;;;15.00;99.90;;;;;;4980198;28;20057;-76
2023/07/19 01:28:09;;;;;;;8.38;4.18;;;15.00;99.90;;;;;;4979856;28;20052;-77
2023/07/19 01:30:35;;;;;;;7.75;6.15;;;15.00;99.90;;;;;;4979134;28;20042;-77
2023/07/19 01:33:01;;;;;;;10.10;4.53;;;14.90;99.90;;;;;;4979686;28;20057;-77
2023/07/19 01:35:28;;;;;;;6.28;4.80;;;14.90;99.90;;;;;;4979418;28;20057;-78
2023/07/19 01:37:53;;;;;;;8.20;5.00;;;14.90;99.90;;;;;;4980028;28;20053;-77
2023/07/19 01:40:19;;;;;;;7.72;5.22;;;14.90;99.90;;;;;;4980004;28;20050;-77
2023/07/19 01:42:45;;;;;;;7.72;4.95;;;14.90;99.90;;;;;;4979613;28;20054;-77
2023/07/19 01:45:11;;;;;;;7.60;4.55;;;14.90;99.90;;;;;;4978961;28;20137;-78
2023/07/19 01:47:36;;;;;;;6.95;4.18;;;14.90;99.90;;;;;;4979189;28;20085;-76
2023/07/19 01:50:03;;;;;;;8.20;5.82;;;14.90;99.90;;;;;;4979233;28;20876;-76
2023/07/19 01:52:28;;;;;;;7.50;5.30;;;14.90;99.90;;;;;;4978519;28;20054;-77
2023/07/19 01:54:54;;;;;;;7.50;4.63;;;14.90;99.90;;;;;;4961504;28;20054;-76
2023/07/19 01:57:21;;;;;;;8.30;5.63;;;14.90;99.90;;;;;;4979434;28;20053;-77
2023/07/19 01:59:46;;;;;;;12.15;6.20;;;14.90;99.90;;;;;;4963595;28;20054;-77
2023/07/19 02:02:12;;;;;;;8.50;5.95;;;14.90;99.90;;;;;;4957953;28;20061;-77
2023/07/19 02:04:38;;;;;;;8.73;5.57;;;14.90;99.90;;;;;;4964291;28;20498;-77
2023/07/19 02:07:04;;;;;;;10.25;5.60;;;14.90;99.90;;;;;;4981685;28;20774;-77
2023/07/19 02:09:30;;;;;;;10.27;6.43;;;14.90;99.90;;;;;;4980886;28;20046;-78
2023/07/19 02:11:55;;;;;;;7.63;5.35;;;14.90;99.90;;;;;;4982409;28;20233;-76
2023/07/19 02:14:21;;;;;;;8.18;5.60;;;13.60;99.90;;;;;;4980641;28;20058;-77
2023/07/19 02:16:47;;;;;;;12.70;7.20;;;14.90;99.90;;;;;;4971967;28;20053;-77
2023/07/19 02:19:13;;;;;;;9.10;6.68;;;14.90;99.90;;;;;;4963886;28;20054;-76
2023/07/19 02:21:38;;;;;;;8.32;6.32;;;14.90;99.90;;;;;;4978728;28;20078;-76
2023/07/19 02:24:04;;;;;;;11.43;7.03;;;14.90;99.90;;;;;;4977067;28;20054;-79
2023/07/19 02:26:30;;;;;;;10.68;6.32;;;14.90;99.90;;;;;;4979273;28;20097;-77
2023/07/19 02:28:56;;;;;;;7.85;5.53;;;14.90;99.90;;;;;;4978316;28;20125;-77
2023/07/19 02:31:21;;;;;;;13.75;6.40;;;14.90;99.90;;;;;;4978342;28;20633;-76
2023/07/19 02:33:47;;;;;;;9.55;6.10;;;15.00;99.90;;;;;;4979005;28;20058;-78
2023/07/19 02:36:14;;;;;;;9.60;6.10;;;14.90;99.90;;;;;;4974218;28;20065;-78
2023/07/19 02:38:41;;;;;;;8.02;6.50;;;15.00;99.90;;;;;;4994790;28;20077;-78
2023/07/19 02:41:07;;;;;;;9.05;6.28;;;15.00;99.90;;;;;;4978786;28;20737;-78
2023/07/19 02:43:33;;;;;;;15.48;6.97;;;14.90;99.90;;;;;;4979041;28;20168;-78
2023/07/19 02:45:59;;;;;;;9.55;5.88;;;14.90;99.90;;;;;;4978515;28;20555;-77
2023/07/19 02:48:24;;;;;;;8.90;6.28;;;14.90;99.90;;;;;;4976747;28;20043;-77
2023/07/19 02:50:50;;;;;;;12.07;6.28;;;14.90;99.90;;;;;;4979222;28;20208;-79
2023/07/19 02:53:17;;;;;;;11.30;6.15;;;14.90;99.90;;;;;;4962848;28;20065;-78
2023/07/19 02:55:43;;;;;;;7.47;5.03;;;14.90;99.90;;;;;;4978697;28;20046;-77
2023/07/19 02:58:09;;;;;;;11.88;6.18;;;14.90;99.90;;;;;;4975672;28;20054;-77
2023/07/19 03:00:40;;;;;;;11.00;6.18;;;14.90;99.90;;;;;;4978564;28;20049;-77
2023/07/19 03:03:06;;;;;;;9.63;6.25;;;14.90;99.90;;;;;;4974697;28;20054;-77
2023/07/19 03:05:34;;;;;;;9.25;6.32;;;14.90;99.90;;;;;;4979003;28;20089;-78
2023/07/19 03:08:01;;;;;;;9.38;5.70;;;14.90;99.90;;;;;;4974244;28;20058;-77
2023/07/19 03:10:27;;;;;;;8.95;6.05;;;14.80;99.90;;;;;;4978963;28;20423;-78
2023/07/19 03:12:53;;;;;;;6.47;5.82;;;14.80;99.90;;;;;;4971975;28;20066;-78
2023/07/19 03:15:19;;;;;;;8.20;5.20;;;14.80;99.90;;;;;;4978684;28;20978;-77
2023/07/19 03:17:44;;;;;;;8.23;5.05;;;14.70;99.90;;;;;;4977743;28;20129;-77
2023/07/19 03:20:11;;;;;;;9.10;5.07;;;14.70;99.90;;;;;;4963076;28;20144;-78
2023/07/19 03:22:36;;;;;;;7.47;5.47;;;14.60;99.90;;;;;;4980673;28;20571;-77
2023/07/19 03:25:02;;;;;;;6.72;4.97;;;14.50;99.90;;;;;;4982895;28;20054;-78
2023/07/19 03:27:28;;;;;;;8.70;5.57;;;14.60;99.90;;;;;;4981551;28;20046;-77
2023/07/19 03:29:54;;;;;;;7.35;5.50;;;14.60;99.90;;;;;;4982532;28;20042;-77
2023/07/19 03:32:20;;;;;;;6.78;5.18;;;14.60;99.90;;;;;;4983182;28;20165;-77
2023/07/19 03:34:45;;;;;;;10.90;6.68;;;14.60;99.90;;;;;;4983569;28;20054;-77
2023/07/19 03:37:11;;;;;;;9.25;5.95;;;14.60;99.90;;;;;;4982660;28;20081;-77
2023/07/19 03:39:37;;;;;;;8.23;5.30;;;14.60;99.90;;;;;;4983822;28;20077;-77
2023/07/19 03:42:03;;;;;;;10.07;4.82;;;14.50;99.90;;;;;;4963548;28;20050;-77
2023/07/19 03:44:28;;;;;;;8.88;5.55;;;14.60;99.90;;;;;;4984437;28;20050;-78
2023/07/19 03:46:54;;;;;;;8.00;5.10;;;14.60;99.90;;;;;;4984986;28;20204;-76
2023/07/19 03:49:20;;;;;;;8.05;5.85;;;14.60;99.90;;;;;;4984820;28;20451;-78
2023/07/19 03:51:46;;;;;;;7.38;5.22;;;14.60;99.90;;;;;;4968719;28;20555;-77
2023/07/19 03:54:11;;;;;;;6.85;5.28;;;14.60;99.90;;;;;;4984242;28;20054;-78
2023/07/19 03:56:37;;;;;;;5.88;5.07;;;14.60;99.90;;;;;;4983464;28;20112;-77
2023/07/19 03:59:03;;;;;;;9.25;5.53;;;14.60;99.90;;;;;;4980025;28;20073;-78
2023/07/19 04:01:29;;;;;;;9.57;5.95;;;14.60;99.90;;;;;;4966338;28;20062;-78
2023/07/19 04:03:55;;;;;;;9.48;5.97;;;14.60;99.90;;;;;;4976949;28;20504;-77
2023/07/19 04:06:20;;;;;;;7.63;5.95;;;14.60;99.90;;;;;;4975569;28;20124;-77
2023/07/19 04:08:46;;;;;;;6.25;5.10;;;14.60;99.90;;;;;;4977955;28;20153;-77
2023/07/19 04:11:12;;;;;;;11.57;5.93;;;14.70;99.90;;;;;;4974599;28;20082;-77
2023/07/19 04:13:38;;;;;;;10.20;7.25;;;14.70;99.90;;;;;;4980264;28;20555;-77
2023/07/19 04:16:03;;;;;;;13.13;7.38;;;14.70;99.90;;;;;;4980466;28;20050;-78
2023/07/19 04:18:29;;;;;;;8.20;6.07;;;14.70;99.90;;;;;;4981134;28;20046;-78
2023/07/19 04:20:57;;;;;;;13.32;7.82;;;14.80;99.90;;;;;;4980732;28;20077;-77
2023/07/19 04:23:23;;;;;;;13.20;7.15;;;14.80;99.90;;;;;;4975286;28;20137;-77
2023/07/19 04:25:50;;;;;;;8.63;6.68;;;14.90;99.90;;;;;;4980894;28;20842;-78
2023/07/19 04:28:16;;;;;;;8.35;6.72;;;14.90;99.90;;;;;;4975906;28;20420;-76
2023/07/19 04:30:43;;;;;;;12.15;6.85;;;15.00;99.90;;;;;;4979254;28;20521;-78
2023/07/19 04:33:09;;;;;;;9.43;6.00;;;15.00;99.90;;;;;;4978952;28;20054;-78
2023/07/19 04:35:35;;;;;;;7.82;6.82;;;15.10;99.90;;;;;;4974305;28;20054;-77
2023/07/19 04:38:00;;;;;;;12.00;6.63;;;15.20;99.90;;;;;;4979597;28;20750;-78
2023/07/19 04:40:26;;;;;;;8.73;6.28;;;15.30;99.90;;;;;;4973153;28;20046;-78
2023/07/19 04:42:52;;;;;;;13.38;6.93;;;15.30;99.90;;;;;;4979397;28;20081;-77
2023/07/19 04:45:18;;;;;;;12.30;6.78;;;15.40;99.90;;;;;;4964399;28;20673;-77
2023/07/19 04:47:44;;;;;;;8.32;5.95;;;15.40;99.90;;;;;;4964215;28;20788;-76
2023/07/19 04:50:10;;;;;;;10.63;6.60;;;15.50;99.90;;;;;;4977468;28;20050;-78
2023/07/19 04:52:36;;;;;;;11.73;6.97;;;15.60;99.90;;;;;;4977618;28;20054;-78
2023/07/19 04:55:02;;;;;;;7.80;6.80;;;15.70;99.90;;;;;;4963250;28;20053;-77
2023/07/19 04:57:28;;;;;;;9.73;6.40;;;15.90;99.90;;;;;;4977737;28;20042;-76
2023/07/19 04:59:54;;;;;;;10.15;6.68;;;16.00;99.90;;;;;;4979086;28;20128;-77
2023/07/19 05:02:20;;;;;;;10.40;7.40;;;16.20;99.90;;;;;;4962430;28;20109;-77
2023/07/19 05:04:45;;;;;;;11.52;6.25;;;16.30;99.90;;;;;;4963462;28;20054;-77
2023/07/19 05:07:11;;;;;;;9.35;6.60;;;16.50;99.90;;;;;;4980432;28;20157;-77
2023/07/19 05:09:37;;;;;;;8.55;6.18;;;16.60;99.90;;;;;;4971924;28;20081;-78
2023/07/19 05:12:03;;;;;;;11.88;8.02;;;16.70;99.90;;;;;;4978360;28;20329;-79
2023/07/19 05:14:29;;;;;;;8.50;6.15;;;16.80;99.90;;;;;;4978544;28;20057;-78
2023/07/19 05:16:55;;;;;;;8.48;6.63;;;16.80;99.90;;;;;;4979198;28;20065;-77
2023/07/19 05:19:20;;;;;;;8.07;6.85;;;16.90;99.90;;;;;;4963261;28;20072;-77
2023/07/19 05:21:46;;;;;;;10.30;6.53;;;19.70;99.90;;;;;;4962806;28;20061;-75
2023/07/19 05:24:12;;;;;;;8.80;6.65;;;17.00;99.90;;;;;;4980426;28;20149;-77
2023/07/19 05:26:39;;;;;;;10.98;6.85;;;17.00;99.90;;;;;;4980026;28;20069;-79
2023/07/19 05:29:05;;;;;;;9.98;6.60;;;17.00;99.90;;;;;;4976995;28;20113;-77
2023/07/19 05:31:31;;;;;;;8.15;6.05;;;17.00;99.90;;;;;;4962806;28;20058;-76
2023/07/19 05:33:57;;;;;;;9.98;6.47;;;16.90;99.90;;;;;;4978779;28;20530;-79
2023/07/19 05:36:23;;;;;;;11.02;6.85;;;16.90;99.90;;;;;;4978779;28;20062;-78
2023/07/19 05:38:48;;;;;;;10.80;6.82;;;16.90;99.90;;;;;;4955751;28;20449;-76
2023/07/19 05:41:14;;;;;;;11.55;6.68;;;16.90;99.90;;;;;;4976523;28;20070;-78
2023/07/19 05:43:40;;;;;;;11.35;6.88;;;17.00;99.90;;;;;;4978251;28;20097;-77
2023/07/19 05:46:07;;;;;;;7.97;6.38;;;17.00;99.90;;;;;;4976588;28;20057;-76
2023/07/19 05:48:34;;;;;;;8.95;6.55;;;17.00;99.90;;;;;;4974983;28;20092;-77
2023/07/19 05:51:01;;;;;;;9.00;6.65;;;16.90;99.90;;;;;;4979081;28;20058;-75
2023/07/19 05:53:27;;;;;;;10.95;6.75;;;16.90;99.90;;;;;;4975542;28;20061;-76
2023/07/19 05:55:53;;;;;;;11.00;7.40;;;16.90;99.90;;;;;;4979095;28;20054;-80
2023/07/19 05:58:19;;;;;;;10.15;6.68;;;16.90;99.90;;;;;;4962746;28;20065;-76
2023/07/19 06:00:47;;;;;;;9.27;6.50;;;16.90;99.90;;;;;;4972319;28;20066;-78
2023/07/19 06:03:16;;;;;;;9.18;6.68;;;16.90;99.90;;;;;;4974981;28;20054;-78
2023/07/19 06:05:44;;;;;;;9.68;6.38;;;17.00;99.90;;;;;;4978215;28;20089;-76
2023/07/19 06:08:11;;;;;;;7.65;6.70;;;17.00;99.90;;;;;;4961610;28;20042;-77
2023/07/19 06:10:37;;;;;;;8.88;5.72;;;17.00;99.90;;;;;;4974350;28;20055;-79
2023/07/19 06:13:03;;;;;;;8.73;6.53;;;17.00;99.90;;;;;;4968993;28;20229;-77
2023/07/19 06:15:31;;;;;;;11.43;6.45;;;17.00;99.90;;;;;;4975977;28;20137;-77
2023/07/19 06:17:57;;;;;;;9.65;5.95;;;17.00;99.90;;;;;;4978405;28;20082;-78
2023/07/19 06:20:23;;;;;;;10.63;6.00;;;17.10;99.90;;;;;;4962632;28;20109;-77
2023/07/19 06:22:49;;;;;;;10.57;6.53;;;17.10;99.90;;;;;;4962579;28;20058;-77
2023/07/19 06:25:15;;;;;;;10.57;5.95;;;17.10;99.90;;;;;;4975162;28;20054;-76
2023/07/19 06:27:42;;;;;;;11.07;6.80;;;17.20;99.90;;;;;;4963251;28;20057;-78
2023/07/19 06:30:09;;;;;;;11.55;6.20;;;17.30;99.90;;;;;;4962607;28;20120;-76
2023/07/19 06:32:36;;;;;;;12.35;6.20;;;17.50;99.90;;;;;;4977578;28;20050;-77
2023/07/19 06:35:02;;;;;;;10.50;6.35;;;17.50;99.90;;;;;;4973437;28;20134;-79
2023/07/19 06:37:28;;;;;;;8.18;5.80;;;17.50;99.90;;;;;;4979183;28;20078;-76
2023/07/19 06:39:54;;;;;;;11.80;5.50;;;17.60;99.90;;;;;;4979176;28;20085;-79
2023/07/19 06:42:20;;;;;;;9.15;5.57;;;17.60;99.90;;;;;;4976320;28;20058;-81
2023/07/19 06:44:45;;;;;;;10.50;5.45;;;17.60;99.90;;;;;;4979137;28;20050;-81
2023/07/19 06:47:11;;;;;;;9.98;5.07;;;17.60;99.90;;;;;;4978337;28;20065;-77
2023/07/19 06:49:37;;;;;;;10.68;5.43;;;17.60;99.90;;;;;;4962669;28;20081;-77
2023/07/19 06:52:04;;;;;;;8.75;5.75;;;17.50;99.90;;;;;;4978561;28;20626;-77
2023/07/19 06:54:30;;;;;;;8.05;4.65;;;17.40;99.90;;;;;;4977594;28;20054;-77
2023/07/19 06:56:56;;;;;;;6.97;4.32;;;17.50;99.90;;;;;;4978459;28;20058;-78
2023/07/19 06:59:21;;;;;;;6.78;4.85;;;17.40;99.90;;;;;;4977184;28;20717;-79
2023/07/19 07:01:47;;;;;;;8.18;4.47;;;17.40;99.90;;;;;;4978003;28;20057;-80
2023/07/19 07:04:13;;;;;;;6.50;4.30;;;17.40;99.90;;;;;;4978459;28;20046;-78
2023/07/19 07:06:39;;;;;;;7.80;4.00;;;17.50;99.90;;;;;;4975998;28;20050;-77
2023/07/19 07:09:05;;;;;;;8.43;4.13;;;17.50;99.90;;;;;;4961541;28;20057;-77
2023/07/19 07:11:30;;;;;;;5.15;3.45;;;17.50;99.90;;;;;;4977139;28;20141;-76
2023/07/19 07:13:56;;;;;;;7.47;4.10;;;17.50;99.90;;;;;;4989645;28;20069;-77
2023/07/19 07:16:22;;;;;;;4.93;3.65;;;17.40;99.90;;;;;;4978519;28;20054;-79
2023/07/19 07:18:48;;;;;;;6.15;3.60;;;17.40;99.90;;;;;;4978091;28;20061;-77
2023/07/19 07:21:15;;;;;;;10.35;3.67;;;17.40;99.90;;;;;;4973948;28;20050;-76
2023/07/19 07:23:41;;;;;;;5.35;3.33;;;17.50;99.90;;;;;;4972043;28;20057;-76
2023/07/19 07:26:07;;;;;;;4.85;2.97;;;17.50;99.90;;;;;;4977082;28;20062;-77
2023/07/19 07:28:33;;;;;;;7.30;3.05;;;17.50;99.90;;;;;;4976762;28;20054;-77
2023/07/19 07:31:06;;;;;;;6.00;2.97;;;17.50;99.90;;;;;;4976853;28;20050;-77
2023/07/19 07:33:32;;;;;;;5.97;2.83;;;17.50;99.90;;;;;;4972918;28;20045;-78
2023/07/19 07:35:57;;;;;;;7.38;3.08;;;17.50;99.90;;;;;;4977339;28;20081;-77
2023/07/19 07:38:23;;;;;;;8.55;3.47;;;17.60;99.90;;;;;;4976202;28;20073;-78
2023/07/19 07:40:49;;;;;;;5.78;4.13;;;17.70;99.90;;;;;;4977269;28;20062;-81
2023/07/19 07:43:15;;;;;;;6.05;2.85;;;17.90;99.90;;;;;;4976831;28;20462;-77
2023/07/19 07:45:40;;;;;;;5.75;2.47;;;18.10;99.90;;;;;;4977574;28;20050;-77
2023/07/19 07:48:06;;;;;;;6.53;2.15;;;18.30;99.90;;;;;;4977185;28;20046;-78
2023/07/19 07:50:32;;;;;;;4.07;1.90;;;18.40;99.90;;;;;;4972837;28;20050;-80
2023/07/19 07:52:58;;;;;;;3.92;2.30;;;18.50;99.90;;;;;;4972696;28;20235;-80
2023/07/19 07:55:24;;;;;;;7.05;2.22;;;18.50;99.90;;;;;;4960780;28;20061;-79
2023/07/19 07:57:49;;;;;;;3.58;1.67;;;18.60;99.90;;;;;;4963254;28;20840;-82
2023/07/19 08:00:17;;;;;;;7.45;2.15;;;18.60;99.90;;;;;;4963361;28;20073;-80
2023/07/19 08:02:43;;;;;;;6.50;2.67;;;18.60;99.90;;;;;;4975713;28;20053;-80
2023/07/19 08:05:09;;;;;;;6.90;2.25;;;18.70;99.90;;;;;;4975924;28;20055;-82
2023/07/19 08:07:35;;;;;;;3.80;2.00;;;18.80;99.90;;;;;;4976854;28;20043;-77
2023/07/19 08:10:01;;;;;;;5.30;2.30;;;19.00;99.90;;;;;;4981193;28;20058;-78
2023/07/19 08:12:28;;;;;;;5.25;2.50;;;19.10;99.90;;;;;;4979300;28;20077;-77
2023/07/19 08:14:54;;;;;;;7.38;2.40;;;19.20;99.90;;;;;;4979446;28;20058;-80
2023/07/19 08:17:22;;;;;;;4.47;2.33;;;19.30;99.90;;;;;;4979148;28;20053;-78
2023/07/19 08:19:48;;;;;;;6.15;2.40;;;19.10;99.90;;;;;;4981749;28;20794;-78
2023/07/19 08:22:25;;;;;;;5.82;2.38;;;19.70;99.90;;;;;;4967840;28;20133;-80
2023/07/19 08:24:51;;;;;;;3.10;1.50;;;20.00;99.90;;;;;;4975368;28;20062;-80
2023/07/19 08:27:17;;;;;;;6.80;2.45;;;20.60;99.90;;;;;;4964789;28;20057;-79
2023/07/19 08:29:43;;;;;;;5.05;1.48;;;21.20;99.90;;;;;;4980464;28;20050;-78
2023/07/19 08:32:09;;;;;;;2.80;1.30;;;21.40;99.90;;;;;;4962762;28;20130;-78
2023/07/19 08:34:35;;;;;;;4.50;1.60;;;21.30;99.90;;;;;;4980342;28;20058;-79
2023/07/19 08:37:00;;;;;;;6.20;2.13;;;21.10;99.90;;;;;;4980840;28;20128;-78
2023/07/19 08:39:29;;;;;;;5.95;2.67;;;21.00;99.90;;;;;;4979923;28;20073;-80
2023/07/19 08:41:55;;;;;;;5.28;1.30;;;20.90;99.90;;;;;;4978274;28;20050;-79
2023/07/19 08:44:23;;;;;;;4.60;1.77;;;20.70;99.90;;;;;;4976989;28;20849;-78
2023/07/19 08:46:49;;;;;;;4.70;1.60;;;20.60;99.90;;;;;;4980508;28;20077;-79
2023/07/19 08:49:18;;;;;;;3.33;1.60;;;20.40;99.90;;;;;;4979960;28;20893;-77
2023/07/19 08:51:45;;;;;;;5.38;2.25;;;20.10;99.90;;;;;;4979677;28;20128;-80
2023/07/19 08:54:12;;;;;;;5.43;1.67;;;20.10;99.90;;;;;;4980719;28;20054;-77
2023/07/19 08:56:38;;;;;;;3.58;1.52;;;20.00;99.90;;;;;;4979974;28;20338;-77
2023/07/19 08:59:05;;;;;;;3.33;0.85;;;20.10;99.90;;;;;;4980629;28;20667;-77
2023/07/19 09:01:31;;;;;;;6.80;1.13;;;20.10;99.90;;;;;;4980365;28;20575;-75
2023/07/19 09:03:57;;;;;;;5.93;1.35;;;19.50;99.90;;;;;;4979217;28;20086;-80
2023/07/19 09:06:30;;;;;;;3.90;0.93;;;20.20;99.90;;;;;;4980160;28;20141;-75
2023/07/19 09:08:57;;;;;;;4.85;0.70;;;20.10;99.90;;;;;;4980308;28;20204;-77
2023/07/19 09:11:24;;;;;;;5.63;1.48;;;20.10;99.90;;;;;;4979561;28;20710;-80
2023/07/19 09:13:57;;;;;;;2.47;0.63;;;20.20;99.90;;;;;;4963778;28;20089;-77
2023/07/19 09:16:31;;;;;;;5.97;1.20;;;20.10;99.90;;;;;;4980725;28;20104;-78
2023/07/19 09:18:58;;;;;;;4.38;0.77;;;20.10;99.90;;;;;;4979884;28;20062;-78
2023/07/19 09:21:40;;;;;;;2.45;0.50;;;20.20;99.90;;;;;;4979936;28;20050;-78
2023/07/19 09:24:10;;;;;;;4.97;0.65;;;20.20;99.90;;;;;;4980089;28;20068;-77
2023/07/19 09:26:52;;;;;;;3.47;0.60;;;20.20;99.90;;;;;;4974081;28;20057;-75
2023/07/19 09:29:22;;;;;;;3.92;0.45;;;20.10;99.90;;;;;;4980277;28;20731;-78
2023/07/19 09:31:55;;;;;;;1.35;0.30;;;20.00;99.90;;;;;;4979640;28;20050;-76
2023/07/19 09:34:34;;;;;;;2.15;0.40;;;19.90;99.90;;;;;;4963413;28;20046;-76
2023/07/19 09:37:01;;;;;;;3.33;0.40;;;19.80;99.90;;;;;;4978225;28;20792;-76
2023/07/19 09:39:29;;;;;;;3.08;0.55;;;19.70;99.90;;;;;;4980448;28;20509;-78
2023/07/19 09:41:57;;;;;;;1.95;0.50;;;19.80;99.90;;;;;;4979899;28;20089;-78
2023/07/19 09:44:23;;;;;;;3.60;0.40;;;20.10;99.90;;;;;;4979919;28;20046;-74
2023/07/19 09:46:49;;;;;;;2.33;0.55;;;21.40;99.90;;;;;;4980150;28;20554;-75
2023/07/19 09:49:15;;;;;;;2.10;0.40;;;22.80;99.90;;;;;;4980184;28;20182;-79
2023/07/19 09:51:42;;;;;;;3.13;0.32;;;23.60;99.90;;;;;;4979449;28;20430;-78
2023/07/19 09:54:12;;;;;;;8.77;2.20;;;24.00;98.70;;;;;;4963845;28;20054;-76
2023/07/19 09:56:40;;;;;;;5.65;0.70;;;23.80;97.40;;;;;;4963604;28;20058;-79
2023/07/19 09:59:13;;;;;;;2.03;0.30;;;23.70;97.30;;;;;;4979943;28;20061;-78
2023/07/19 10:01:40;;;;;;;3.20;1.00;;;24.00;97.30;;;;;;4989981;28;20058;-77
2023/07/19 10:04:29;;;;;;;4.82;0.40;;;24.40;96.90;;;;;;4974360;28;20088;-75
2023/07/19 10:07:08;;;;;;;3.45;0.40;;;24.90;95.80;;;;;;4979237;28;20047;-79
2023/07/19 10:09:41;;;;;;;2.92;0.60;;;25.20;95.10;;;;;;4979915;28;20500;-78
2023/07/19 10:12:28;;;;;;;2.78;0.47;;;25.50;94.70;;;;;;4964381;28;20050;-78
2023/07/19 10:15:07;;;;;;;4.78;0.50;;;26.10;94.10;;;;;;4975809;28;20058;-79
2023/07/19 10:17:52;;;;;;;2.25;0.60;;;26.40;93.00;;;;;;4981663;28;20563;-78
2023/07/19 10:20:32;;;;;;;2.55;0.60;;;26.70;92.20;;;;;;4981533;28;20491;-80
2023/07/19 10:23:00;;;;;;;4.82;0.50;;;27.10;91.70;;;;;;4982291;28;20058;-79
2023/07/19 10:25:34;;;;;;;3.83;0.85;;;27.70;90.60;;;;;;4982074;28;20057;-80
2023/07/19 10:28:04;;;;;;;4.63;1.10;;;28.30;87.40;;;;;;4982235;28;20050;-80
2023/07/19 10:30:51;;;;;;;4.28;0.77;;;28.80;85.90;;;;;;4980545;28;20057;-75
2023/07/19 10:33:20;;;;;;;1.90;0.35;;;29.20;83.50;;;;;;4976279;28;20050;-79
2023/07/19 10:36:14;;;;;;;4.00;0.60;;;29.30;80.80;;;;;;4972739;28;20054;-78
2023/07/19 10:38:40;;;;;;;3.53;0.45;;;28.90;79.40;;;;;;4977416;28;20058;-78
2023/07/19 10:41:07;;;;;;;4.05;1.05;;;28.20;79.80;;;;;;4974392;28;20050;-79
2023/07/19 10:43:37;;;;;;;1.85;0.45;;;27.50;79.90;;;;;;4979146;28;20057;-80
2023/07/19 10:46:05;;;;;;;2.92;0.50;;;26.70;79.30;;;;;;4978608;28;20649;-76
2023/07/19 10:48:33;;;;;;;1.42;0.35;;;25.90;80.40;;;;;;4976673;28;20054;-82
2023/07/19 10:51:00;;;;;;;3.65;0.60;;;25.30;81.80;;;;;;4978040;28;20058;-77
2023/07/19 10:53:26;;;;;;;2.22;0.50;;;24.90;83.00;;;;;;4978033;28;20484;-76
2023/07/19 10:55:53;;;;;;;3.70;0.40;;;24.40;83.80;;;;;;4987946;28;20053;-74
2023/07/19 10:58:19;;;;;;;4.82;0.63;;;23.90;84.60;;;;;;4978989;28;20058;-81
2023/07/19 11:00:45;;;;;;;4.32;0.60;;;23.30;86.60;;;;;;4979097;28;20707;-79
2023/07/19 11:03:15;;;;;;;4.28;1.20;;;22.80;89.00;;;;;;4979598;28;20054;-80
2023/07/19 11:05:46;;;;;;;3.47;0.57;;;22.40;90.80;;;;;;4978068;28;20069;-80
2023/07/19 11:08:30;;;;;;;2.03;0.80;;;22.10;91.80;;;;;;4974486;28;20108;-79
2023/07/19 11:10:57;;;;;;;2.85;0.70;;;21.90;92.90;;;;;;4978515;28;20110;-80
2023/07/19 11:13:24;;;;;;;2.80;0.68;;;21.80;93.60;;;;;;4971690;28;20054;-79
2023/07/19 11:15:53;;;;;;;4.90;0.80;;;22.30;94.40;;;;;;4978045;28;20058;-79
2023/07/19 11:18:37;;;;;;;5.18;0.98;;;21.70;94.60;;;;;;4978458;28;20417;-80
2023/07/19 11:21:03;;;;;;;4.35;0.80;;;20.90;94.60;;;;;;4977157;28;20691;-79
2023/07/19 11:23:29;;;;;;;2.25;0.90;;;21.50;95.00;;;;;;4978968;28;20054;-82
2023/07/19 11:26:07;;;;;;;3.47;1.05;;;21.30;95.20;;;;;;4978519;28;20057;-80
2023/07/19 11:28:47;;;;;;;3.40;0.82;;;21.00;95.70;;;;;;4977186;28;20518;-80
2023/07/19 11:31:39;;;;;;;2.83;0.68;;;20.90;96.20;;;;;;4978014;28;20051;-80
2023/07/19 11:34:07;;;;;;;4.22;0.70;;;21.00;97.20;;;;;;4973855;28;20880;-81
2023/07/19 11:36:46;;;;;;;2.75;0.93;;;21.20;97.50;;;;;;4961738;28;20054;-76
2023/07/19 11:39:21;;;;;;;3.17;0.75;;;21.50;98.20;;;;;;4978192;28;20054;-77
2023/07/19 11:41:48;;;;;;;1.85;0.43;;;21.80;97.90;;;;;;4961937;28;20148;-78
2023/07/19 11:44:19;;;;;;;3.85;0.90;;;22.20;97.60;;;;;;4964713;28;20849;-78
2023/07/19 11:46:45;;;;;;;4.45;0.52;;;22.50;97.20;;;;;;4981504;28;20061;-78
2023/07/19 11:49:11;;;;;;;3.03;0.55;;;22.70;96.70;;;;;;4965224;28;20066;-78
2023/07/19 11:51:37;;;;;;;2.47;0.60;;;22.70;96.50;;;;;;4981898;28;20049;-78
2023/07/19 11:54:03;;;;;;;3.42;0.45;;;22.70;96.60;;;;;;4964214;28;20057;-77
2023/07/19 11:56:29;;;;;;;3.45;0.52;;;22.60;96.20;;;;;;4978629;28;20054;-81
2023/07/19 11:58:56;;;;;;;2.10;0.50;;;22.30;96.00;;;;;;4981578;28;20686;-79
2023/07/19 12:01:22;;;;;;;3.63;1.27;;;21.90;95.90;;;;;;4981806;28;20051;-80
2023/07/19 12:03:48;;;;;;;1.52;0.40;;;21.60;96.30;;;;;;4976070;28;20051;-80
2023/07/19 12:06:14;;;;;;;2.78;1.13;;;21.30;96.60;;;;;;4983337;28;20046;-80
2023/07/19 12:08:46;;;;;;;2.60;0.80;;;21.10;97.00;;;;;;4986858;28;20046;-81
2023/07/19 12:11:12;;;;;;;;;;;20.80;97.70;;;;;;4983373;28;20081;-78
2023/07/19 12:13:38;;;;;;;4.35;1.17;;;20.60;98.10;;;;;;4981951;28;20439;-78
2023/07/19 12:16:04;;;;;;;3.75;1.13;;;20.40;98.60;;;;;;4982396;28;20073;-81
2023/07/19 12:18:30;;;;;;;2.72;1.50;;;20.40;99.10;;;;;;4983508;28;20081;-78
2023/07/19 12:20:56;;;;;;;6.95;1.13;;;20.50;99.70;;;;;;4986460;28;20153;-80
2023/07/19 12:23:23;;;;;;;3.28;1.10;;;20.70;99.90;;;;;;4979358;28;20058;-80
2023/07/19 12:25:49;;;;;;;4.25;1.20;;;20.80;99.90;;;;;;4981205;28;20592;-81
2023/07/19 12:28:16;;;;;;;3.65;1.33;;;20.80;99.90;;;;;;4982359;28;20050;-77
2023/07/19 12:30:42;;;;;;;5.00;1.10;;;19.80;99.70;;;;;;4980706;28;20042;-78
2023/07/19 12:33:08;;;;;;;3.35;1.40;;;20.60;99.90;;;;;;4980646;28;20082;-80
2023/07/19 12:35:36;;;;;;;3.67;1.40;;;20.40;99.90;;;;;;4977395;28;20163;-80
2023/07/19 12:38:02;;;;;;;4.45;1.33;;;20.30;99.90;;;;;;4980916;28;20117;-81
2023/07/19 12:40:30;;;;;;;3.97;1.58;;;20.10;99.90;;;;;;4977203;28;20054;-82
2023/07/19 12:42:56;;;;;;;5.25;1.45;;;21.60;99.90;;;;;;4979899;28;20134;-81
2023/07/19 12:45:23;;;;;;;3.75;1.25;;;19.80;99.90;;;;;;4975597;28;20892;-82